Aérodrome :
LOGIN :

S'inscrire | Disclaimer

   EN    FR    IT 

 










Légende :    VFR   VFR Marginal   IFR   IFR Intensif   IFR Très Intensif
Visi : 
Plafond : 
>= 8 km
>= 3000ft
5 à 8 km
1000 à 3000 ft
1500m à 5 km
500 à 1000 ft
800 à 1500m
200 à 500 ft
< 800m
< 200 ft
Symboles :   Orages  Brouillard  Fortes neiges  Fortes précipitations  Vent > 20 kt
SIGMETs :   Divers  Orages  Givrage  Turbulence  Onde Orograph.  Cendres Volcan.






- Altitude de l'aérodrome : 686 ft


LYKV - Ladevci

DERNIER METAR :
  • 101100Z 12007KT 070V170 CAVOK 30/16 Q1016 NOSIG

METARs EXPIRÉS :
  • 101030Z 13009KT 090V160 CAVOK 29/16 Q1017 NOSIG
  • 101000Z 13007KT 090V170 CAVOK 29/17 Q1017 NOSIG
  • 100930Z 15005KT 080V200 CAVOK 28/18 Q1017 NOSIG
  • 100900Z VRB02KT CAVOK 26/18 Q1017 NOSIG
  • 100830Z 12003KT 050V190 CAVOK 25/17 Q1018 NOSIG

TAF TAF LYKV
Valide du 10 à 06h jusqu'au 11 à 06h UTC


100500Z 1006/1106 13004KT CAVOK TX32/1014Z TN16/1103Z
TEMPO 1010/1016 13014KT



MET'MAP, la Météo Aéronautique d'un coup d'oeil ! - Copyright ORBIFLY Décembre 2007 - Disclaimer

ORBIFLY MET'MAP TEAM :

Programmation & Développement : Alexandra Zaïnal
Sur une idée originale de : Baudouin d'Aumeries
Assistance à la programmation : Marc-Olivier Méhu
Soutien technique & logistique : Manuel Goepfert

Contact : metmap@orbifly.com




SOURCES & CREDITS :

   NOAA